createdAt,value
2019-04-10T00:02:01.527Z,100472.00
2019-04-10T00:04:31.544Z,100474.00
2019-04-10T00:07:12.741Z,100468.00
2019-04-10T00:09:34.986Z,100470.00
2019-04-10T00:12:05.531Z,100478.00
2019-04-10T00:14:35.241Z,100475.00
2019-04-10T00:17:05.364Z,100473.00
2019-04-10T00:19:37.943Z,100471.00
2019-04-10T00:22:07.978Z,100470.00
2019-04-10T00:24:37.859Z,100476.00
2019-04-10T00:27:07.622Z,100475.00
2019-04-10T00:29:38.356Z,100476.00
2019-04-10T00:32:08.030Z,100469.00
2019-04-10T00:34:37.938Z,100473.00
2019-04-10T00:37:21.310Z,100470.00
2019-04-10T00:39:39.411Z,100478.00
2019-04-10T00:42:09.091Z,100476.00
2019-04-10T00:44:39.672Z,100483.00
2019-04-10T00:47:09.620Z,100481.00
2019-04-10T00:49:40.195Z,100484.00
2019-04-10T00:52:10.200Z,100490.00
2019-04-10T00:54:40.032Z,100483.00
2019-04-10T00:57:09.723Z,100483.00
2019-04-10T00:59:40.031Z,100491.00
2019-04-10T01:02:10.211Z,100485.00
2019-04-10T01:04:40.453Z,100487.00
2019-04-10T01:07:10.679Z,100489.00
2019-04-10T01:09:40.375Z,100494.00
2019-04-10T01:12:11.866Z,100505.00
2019-04-10T01:14:42.879Z,100496.00
2019-04-10T01:17:13.656Z,100483.00
2019-04-10T01:19:43.988Z,100498.00
2019-04-10T01:22:14.941Z,100497.00
2019-04-10T01:24:45.993Z,100486.00
2019-04-10T01:27:16.041Z,100487.00
2019-04-10T01:29:46.124Z,100484.00
2019-04-10T01:32:17.387Z,100489.00
2019-04-10T01:34:47.258Z,100491.00
2019-04-10T01:37:16.930Z,100490.00
2019-04-10T01:39:46.645Z,100493.00
2019-04-10T01:42:16.601Z,100502.00
2019-04-10T01:44:47.042Z,100490.00
2019-04-10T01:47:17.201Z,100487.00
2019-04-10T01:49:48.252Z,100494.00
2019-04-10T01:52:17.981Z,100498.00
2019-04-10T01:54:47.628Z,100495.00
2019-04-10T01:57:17.397Z,100493.00
2019-04-10T01:59:47.912Z,100491.00
2019-04-10T02:02:19.528Z,100499.00
2019-04-10T02:04:52.120Z,100496.00
2019-04-10T02:07:20.599Z,100495.00
2019-04-10T02:09:50.269Z,100500.00
2019-04-10T02:12:20.722Z,100500.00
2019-04-10T02:14:50.685Z,100502.00
2019-04-10T02:17:20.345Z,100512.00
2019-04-10T02:19:50.324Z,100506.00
2019-04-10T02:22:20.400Z,100500.00
2019-04-10T02:24:50.109Z,100513.00
2019-04-10T02:27:20.455Z,100506.00
2019-04-10T02:29:50.338Z,100505.00
2019-04-10T02:32:21.084Z,100512.00
2019-04-10T02:34:51.039Z,100502.00
2019-04-10T02:37:22.472Z,100512.00
2019-04-10T02:39:56.295Z,100512.00
2019-04-10T02:42:24.747Z,100499.00
2019-04-10T02:44:54.698Z,100516.00
2019-04-10T02:47:24.346Z,100510.00
2019-04-10T02:49:54.471Z,100499.00
2019-04-10T02:52:24.674Z,100514.00
2019-04-10T02:54:54.683Z,100511.00
2019-04-10T02:57:25.471Z,100519.00
2019-04-10T02:59:55.849Z,100507.00
2019-04-10T03:02:26.650Z,100514.00
2019-04-10T03:04:57.346Z,100502.00
2019-04-10T03:07:28.366Z,100508.00
2019-04-10T03:10:12.018Z,100511.00
2019-04-10T03:12:30.165Z,100520.00
2019-04-10T03:15:01.164Z,100515.00
2019-04-10T03:17:30.906Z,100513.00
2019-04-10T03:20:00.577Z,100508.00
2019-04-10T03:22:30.238Z,100514.00
2019-04-10T03:25:00.875Z,100521.00
2019-04-10T03:27:30.574Z,100518.00
2019-04-10T03:30:00.284Z,100516.00
2019-04-10T03:32:37.129Z,100521.00
2019-04-10T03:35:25.386Z,100519.00
2019-04-10T03:37:55.106Z,100522.00
2019-04-10T03:40:24.766Z,100522.00
2019-04-10T03:42:55.096Z,100515.00
2019-04-10T03:45:24.907Z,100520.00
2019-04-10T03:47:55.675Z,100518.00
2019-04-10T03:50:25.868Z,100519.00
2019-04-10T03:52:55.909Z,100515.00
2019-04-10T03:55:25.802Z,100517.00
2019-04-10T03:57:55.474Z,100530.00
2019-04-10T04:00:25.861Z,100518.00
2019-04-10T04:02:56.150Z,100524.00
2019-04-10T04:05:26.673Z,100522.00
2019-04-10T04:07:57.134Z,100526.00
2019-04-10T04:10:27.112Z,100525.00
2019-04-10T04:12:57.263Z,100538.00
2019-04-10T04:15:28.127Z,100529.00
2019-04-10T04:17:57.840Z,100532.00
2019-04-10T04:20:28.643Z,100529.00
2019-04-10T04:22:58.570Z,100537.00
2019-04-10T04:25:28.288Z,100539.00
2019-04-10T04:28:00.467Z,100532.00
2019-04-10T04:30:30.191Z,100538.00
2019-04-10T04:32:59.852Z,100545.00
2019-04-10T04:35:30.621Z,100545.00
2019-04-10T04:38:00.521Z,100533.00
2019-04-10T04:40:30.206Z,100543.00
2019-04-10T04:43:00.177Z,100536.00
2019-04-10T04:45:30.040Z,100540.00
2019-04-10T04:47:59.808Z,100536.00
2019-04-10T04:50:29.517Z,100536.00
2019-04-10T04:53:00.350Z,100535.00
2019-04-10T04:55:31.013Z,100547.00
2019-04-10T04:58:00.762Z,100550.00
2019-04-10T05:00:30.419Z,100551.00
2019-04-10T05:03:00.130Z,100548.00
2019-04-10T05:05:29.823Z,100546.00
2019-04-10T05:08:03.709Z,100550.00
2019-04-10T05:10:33.527Z,100557.00
2019-04-10T05:13:04.043Z,100555.00
2019-04-10T05:15:33.841Z,100557.00
2019-04-10T05:18:04.069Z,100565.00
2019-04-10T05:20:43.926Z,100567.00
2019-04-10T05:23:06.243Z,100562.00
2019-04-10T05:25:36.071Z,100568.00
2019-04-10T05:28:06.400Z,100559.00
2019-04-10T05:30:36.266Z,100568.00
2019-04-10T05:33:06.309Z,100572.00
2019-04-10T05:35:36.411Z,100570.00
2019-04-10T05:38:06.222Z,100576.00
2019-04-10T05:40:36.676Z,100575.00
2019-04-10T05:43:06.641Z,100576.00
2019-04-10T05:45:36.301Z,100583.00
2019-04-10T05:48:06.793Z,100586.00
2019-04-10T05:50:37.764Z,100588.00
2019-04-10T05:53:07.835Z,100600.00
2019-04-10T05:55:38.526Z,100588.00
2019-04-10T05:58:09.651Z,100586.00
2019-04-10T06:00:39.400Z,100605.00
2019-04-10T06:03:09.162Z,100590.00
2019-04-10T06:05:38.832Z,100601.00
2019-04-10T06:08:08.557Z,100589.00
2019-04-10T06:10:39.436Z,100604.00
2019-04-10T06:13:09.272Z,100608.00
2019-04-10T06:15:39.218Z,100611.00
2019-04-10T06:18:09.197Z,100600.00
2019-04-10T06:20:39.691Z,100608.00
2019-04-10T06:23:09.530Z,100610.00
2019-04-10T06:25:41.550Z,100607.00
2019-04-10T06:28:10.597Z,100610.00
2019-04-10T06:30:40.255Z,100605.00
2019-04-10T06:33:09.921Z,100612.00
2019-04-10T06:35:39.930Z,100608.00
2019-04-10T06:38:10.702Z,100615.00
2019-04-10T06:40:40.485Z,100608.00
2019-04-10T06:43:10.178Z,100612.00
2019-04-10T06:45:39.998Z,100616.00
2019-04-10T06:48:10.854Z,100610.00
2019-04-10T06:50:41.235Z,100621.00
2019-04-10T06:53:10.998Z,100613.00
2019-04-10T06:55:41.063Z,100616.00
2019-04-10T06:58:11.629Z,100614.00
2019-04-10T07:00:46.655Z,100618.00
2019-04-10T07:03:14.855Z,100622.00
2019-04-10T07:06:00.574Z,100633.00
2019-04-10T07:08:19.901Z,100635.00
2019-04-10T07:10:57.839Z,100636.00
2019-04-10T07:13:21.164Z,100626.00
2019-04-10T07:15:54.494Z,100633.00
2019-04-10T07:18:22.213Z,100638.00
2019-04-10T07:20:51.905Z,100634.00
2019-04-10T07:23:25.872Z,100640.00
2019-04-10T07:25:55.064Z,100647.00
2019-04-10T07:28:25.776Z,100636.00
2019-04-10T07:30:59.856Z,100646.00
2019-04-10T07:33:26.862Z,100648.00
2019-04-10T07:35:56.857Z,100665.00
2019-04-10T07:38:26.742Z,100661.00
2019-04-10T07:40:56.866Z,100662.00
2019-04-10T07:43:28.885Z,100651.00
2019-04-10T07:45:59.461Z,100662.00
2019-04-10T07:48:29.423Z,100659.00
2019-04-10T07:50:59.380Z,100672.00
2019-04-10T07:53:29.128Z,100679.00
2019-04-10T07:56:06.492Z,100663.00
2019-04-10T07:58:31.234Z,100672.00
2019-04-10T08:01:02.287Z,100662.00
2019-04-10T08:03:33.095Z,100675.00
2019-04-10T08:06:02.911Z,100670.00
2019-04-10T08:08:33.941Z,100680.00
2019-04-10T08:11:04.937Z,100675.00
2019-04-10T08:13:35.032Z,100677.00
2019-04-10T08:16:04.896Z,100675.00
2019-04-10T08:18:35.139Z,100680.00
2019-04-10T08:21:05.199Z,100680.00
2019-04-10T08:23:35.738Z,100676.00
2019-04-10T08:26:05.759Z,100687.00
2019-04-10T08:28:36.982Z,100681.00
2019-04-10T08:31:06.836Z,100687.00
2019-04-10T08:33:36.724Z,100685.00
2019-04-10T08:36:07.436Z,100690.00
2019-04-10T08:38:38.011Z,100684.00
2019-04-10T08:41:08.711Z,100694.00
2019-04-10T08:43:39.559Z,100696.00
2019-04-10T08:46:09.407Z,100699.00
2019-04-10T08:48:39.221Z,100696.00
2019-04-10T08:51:09.176Z,100696.00
2019-04-10T08:53:38.852Z,100706.00
2019-04-10T08:56:08.595Z,100695.00
2019-04-10T08:58:39.128Z,100704.00
2019-04-10T09:01:09.200Z,100697.00
2019-04-10T09:03:39.241Z,100698.00
2019-04-10T09:06:09.894Z,100704.00
2019-04-10T09:08:39.553Z,100708.00
2019-04-10T09:11:09.224Z,100710.00
2019-04-10T09:13:38.951Z,100706.00
2019-04-10T09:16:08.582Z,100708.00
2019-04-10T09:18:39.052Z,100709.00
2019-04-10T09:21:09.063Z,100717.00
2019-04-10T09:23:46.718Z,100723.00
2019-04-10T09:26:11.288Z,100725.00
2019-04-10T09:28:41.071Z,100734.00
2019-04-10T09:31:10.812Z,100729.00
2019-04-10T09:33:40.735Z,100730.00
2019-04-10T09:36:11.170Z,100729.00
2019-04-10T09:38:41.097Z,100736.00
2019-04-10T09:41:11.860Z,100732.00
2019-04-10T09:43:42.159Z,100734.00
2019-04-10T09:46:12.769Z,100752.00
2019-04-10T09:48:42.502Z,100727.00
2019-04-10T09:51:12.265Z,100735.00
2019-04-10T09:53:43.358Z,100737.00
2019-04-10T09:56:13.642Z,100739.00
2019-04-10T09:58:43.484Z,100734.00
2019-04-10T10:01:16.272Z,100733.00
2019-04-10T10:03:46.554Z,100746.00
2019-04-10T10:06:24.323Z,100745.00
2019-04-10T10:08:48.084Z,100738.00
2019-04-10T10:11:18.107Z,100738.00
2019-04-10T10:13:48.238Z,100734.00
2019-04-10T10:16:18.945Z,100739.00
2019-04-10T10:18:49.850Z,100751.00
2019-04-10T10:21:20.675Z,100747.00
2019-04-10T10:23:51.918Z,100746.00
2019-04-10T10:26:21.841Z,100743.00
2019-04-10T10:29:05.329Z,100744.00
2019-04-10T10:31:36.007Z,100748.00
2019-04-10T10:34:06.109Z,100747.00
2019-04-10T10:36:41.503Z,100742.00
2019-04-10T10:39:13.468Z,100750.00
2019-04-10T10:41:43.137Z,100751.00
2019-04-10T10:44:13.073Z,100748.00
2019-04-10T10:46:43.929Z,100755.00
2019-04-10T10:49:13.689Z,100756.00
2019-04-10T10:51:43.369Z,100751.00
2019-04-10T10:54:13.039Z,100741.00
2019-04-10T10:56:42.721Z,100746.00
2019-04-10T10:59:13.373Z,100745.00
2019-04-10T11:01:44.258Z,100740.00
2019-04-10T11:04:15.043Z,100741.00
2019-04-10T11:06:54.378Z,100744.00
2019-04-10T11:09:18.189Z,100747.00
2019-04-10T11:11:49.377Z,100750.00
2019-04-10T11:14:21.471Z,100745.00
2019-04-10T11:16:53.672Z,100754.00
2019-04-10T11:19:27.000Z,100741.00
2019-04-10T11:21:56.940Z,100742.00
2019-04-10T11:24:26.832Z,100740.00
2019-04-10T11:26:56.496Z,100744.00
2019-04-10T11:29:26.467Z,100749.00
2019-04-10T11:31:58.031Z,100744.00
2019-04-10T11:34:29.230Z,100744.00
2019-04-10T11:37:16.729Z,100740.00
2019-04-10T11:39:33.055Z,100741.00
2019-04-10T11:42:02.028Z,100748.00
2019-04-10T11:44:33.540Z,100735.00
2019-04-10T11:47:05.585Z,100739.00
2019-04-10T11:49:38.715Z,100747.00
2019-04-10T11:52:06.473Z,100736.00
2019-04-10T11:54:40.984Z,100722.00
2019-04-10T11:57:09.982Z,100741.00
2019-04-10T11:59:41.036Z,100734.00
2019-04-10T12:02:12.138Z,100734.00
2019-04-10T12:12:17.398Z,100731.00
2019-04-10T12:14:47.898Z,100730.00
2019-04-10T12:17:17.962Z,100732.00
2019-04-10T12:19:48.716Z,100732.00
2019-04-10T12:22:19.168Z,100728.00
2019-04-10T12:24:50.060Z,100739.00
2019-04-10T12:27:20.918Z,100726.00
2019-04-10T12:29:51.010Z,100729.00
2019-04-10T12:32:20.909Z,100720.00
2019-04-10T12:34:50.881Z,100718.00
2019-04-10T12:37:22.028Z,100724.00
2019-04-10T12:40:11.854Z,100719.00
2019-04-10T12:42:41.632Z,100719.00
2019-04-10T12:45:13.556Z,100727.00
2019-04-10T12:47:43.600Z,100738.00
2019-04-10T12:50:14.220Z,100734.00
2019-04-10T12:52:45.047Z,100729.00
2019-04-10T12:55:16.429Z,100731.00
2019-04-10T12:57:47.537Z,100737.00
2019-04-10T13:00:20.795Z,100733.00
2019-04-10T13:03:09.548Z,100739.00
2019-04-10T13:05:39.247Z,100738.00
2019-04-10T13:08:18.803Z,100737.00
2019-04-10T13:10:40.403Z,100733.00
2019-04-10T13:13:10.096Z,100736.00
2019-04-10T13:15:39.782Z,100734.00
2019-04-10T13:18:09.544Z,100736.00
2019-04-10T13:20:39.938Z,100732.00
2019-04-10T13:23:10.782Z,100739.00
2019-04-10T13:25:40.799Z,100736.00
2019-04-10T13:28:11.536Z,100737.00
2019-04-10T13:30:49.386Z,100741.00
2019-04-10T13:33:14.214Z,100741.00
2019-04-10T13:35:44.273Z,100732.00
2019-04-10T13:38:23.188Z,100730.00
2019-04-10T13:40:45.926Z,100721.00
2019-04-10T13:43:16.028Z,100719.00
2019-04-10T13:45:45.877Z,100734.00
2019-04-10T13:48:16.481Z,100734.00
2019-04-10T13:50:48.682Z,100723.00
2019-04-10T13:53:18.591Z,100735.00
2019-04-10T13:55:48.599Z,100722.00
2019-04-10T13:58:19.293Z,100730.00
2019-04-10T14:00:49.733Z,100724.00
2019-04-10T14:03:20.710Z,100724.00
2019-04-10T14:05:50.620Z,100725.00
2019-04-10T14:08:35.992Z,100740.00
2019-04-10T14:10:53.419Z,100731.00
2019-04-10T14:13:24.067Z,100723.00
2019-04-10T14:15:53.985Z,100717.00
2019-04-10T14:18:24.155Z,100732.00
2019-04-10T14:21:11.485Z,100722.00
2019-04-10T14:23:39.555Z,100725.00
2019-04-10T14:26:16.762Z,100719.00
2019-04-10T14:28:47.981Z,100720.00
2019-04-10T14:31:23.230Z,100729.00
2019-04-10T14:33:53.331Z,100724.00
2019-04-10T14:36:24.245Z,100721.00
2019-04-10T14:38:56.160Z,100713.00
2019-04-10T14:41:26.202Z,100719.00
2019-04-10T14:43:55.941Z,100709.00
2019-04-10T14:46:26.288Z,100703.00
2019-04-10T14:48:56.578Z,100695.00
2019-04-10T14:51:26.525Z,100704.00
2019-04-10T14:53:57.427Z,100704.00
2019-04-10T14:56:28.344Z,100717.00
2019-04-10T14:58:58.196Z,100712.00
2019-04-10T15:01:28.573Z,100710.00
2019-04-10T15:03:58.333Z,100712.00
2019-04-10T15:06:29.012Z,100714.00
2019-04-10T15:08:59.673Z,100714.00
2019-04-10T15:11:29.500Z,100726.00
2019-04-10T15:13:59.329Z,100721.00
2019-04-10T15:16:29.282Z,100726.00
2019-04-10T15:19:00.345Z,100740.00
2019-04-10T15:21:32.271Z,100747.00
2019-04-10T15:24:03.556Z,100744.00
2019-04-10T15:26:33.356Z,100750.00
2019-04-10T15:29:03.746Z,100750.00
2019-04-10T15:31:33.568Z,100750.00
2019-04-10T15:34:03.668Z,100754.00
2019-04-10T15:36:33.982Z,100761.00
2019-04-10T15:39:06.862Z,100762.00
2019-04-10T15:41:36.853Z,100758.00
2019-04-10T15:44:25.939Z,100772.00
2019-04-10T15:46:55.747Z,100760.00
2019-04-10T15:49:25.411Z,100779.00
2019-04-10T15:51:55.306Z,100782.00
2019-04-10T15:54:25.628Z,100771.00
2019-04-10T15:56:56.472Z,100776.00
2019-04-10T15:59:28.126Z,100778.00
2019-04-10T16:01:57.992Z,100786.00
2019-04-10T16:04:27.660Z,100783.00
2019-04-10T16:06:57.856Z,100781.00
2019-04-10T16:09:29.359Z,100793.00
2019-04-10T16:12:00.765Z,100790.00
2019-04-10T16:14:32.076Z,100788.00
2019-04-10T16:17:10.172Z,100797.00
2019-04-10T16:19:45.053Z,100797.00
2019-04-10T16:22:19.246Z,100798.00
2019-04-10T16:24:49.142Z,100796.00
2019-04-10T16:27:18.916Z,100803.00
2019-04-10T16:29:49.029Z,100800.00
2019-04-10T16:32:21.022Z,100804.00
2019-04-10T16:34:51.198Z,100803.00
2019-04-10T16:37:22.154Z,100813.00
2019-04-10T16:40:01.505Z,100806.00
2019-04-10T16:42:24.445Z,100807.00
2019-04-10T16:44:54.291Z,100817.00
2019-04-10T16:47:24.128Z,100811.00
2019-04-10T16:49:53.798Z,100816.00
2019-04-10T16:52:23.482Z,100818.00
2019-04-10T16:54:53.511Z,100815.00
2019-04-10T16:57:24.638Z,100818.00
2019-04-10T16:59:55.870Z,100819.00
2019-04-10T17:02:26.357Z,100832.00
2019-04-10T17:04:56.438Z,100829.00
2019-04-10T17:07:27.209Z,100827.00
2019-04-10T17:10:09.523Z,100836.00
2019-04-10T17:12:29.630Z,100831.00
2019-04-10T17:14:59.575Z,100839.00
2019-04-10T17:17:30.501Z,100834.00
2019-04-10T17:20:00.745Z,100851.00
2019-04-10T17:22:37.308Z,100850.00
2019-04-10T17:25:02.301Z,100846.00
2019-04-10T17:27:32.887Z,100849.00
2019-04-10T17:30:03.437Z,100854.00
2019-04-10T17:32:33.298Z,100853.00
2019-04-10T17:35:03.270Z,100848.00
2019-04-10T17:37:35.888Z,100862.00
2019-04-10T17:40:23.140Z,100861.00
2019-04-10T17:42:41.517Z,100857.00
2019-04-10T17:45:12.226Z,100863.00
2019-04-10T17:47:41.979Z,100859.00
2019-04-10T17:50:16.274Z,100862.00
2019-04-10T17:52:47.186Z,100873.00
2019-04-10T17:55:17.647Z,100864.00
2019-04-10T17:57:48.801Z,100870.00
2019-04-10T18:00:31.756Z,100871.00
2019-04-10T18:03:03.418Z,100869.00
2019-04-10T18:05:33.127Z,100878.00
2019-04-10T18:08:03.006Z,100890.00
2019-04-10T18:10:43.807Z,100886.00
2019-04-10T18:13:06.923Z,100897.00
2019-04-10T18:15:37.803Z,100899.00
2019-04-10T18:18:09.399Z,100898.00
2019-04-10T18:20:40.065Z,100898.00
2019-04-10T18:23:11.281Z,100902.00
2019-04-10T18:25:42.260Z,100905.00
2019-04-10T18:28:12.188Z,100914.00
2019-04-10T18:30:44.632Z,100904.00
2019-04-10T18:33:14.571Z,100908.00
2019-04-10T18:35:44.227Z,100922.00
2019-04-10T18:38:13.917Z,100919.00
2019-04-10T18:40:55.015Z,100907.00
2019-04-10T18:43:16.003Z,100850.00
2019-04-10T18:45:59.535Z,100920.00
2019-04-10T18:48:17.222Z,100920.00
2019-04-10T18:50:47.511Z,100919.00
2019-04-10T18:53:17.491Z,100918.00
2019-04-10T18:55:47.362Z,100926.00
2019-04-10T18:58:19.256Z,100923.00
2019-04-10T19:00:51.203Z,100943.00
2019-04-10T19:03:25.595Z,100939.00
2019-04-10T19:06:00.334Z,100949.00
2019-04-10T19:08:30.281Z,100946.00
2019-04-10T19:11:10.579Z,100948.00
2019-04-10T19:13:31.458Z,100949.00
2019-04-10T19:16:01.424Z,100945.00
2019-04-10T19:18:32.163Z,100957.00
2019-04-10T19:21:03.172Z,100958.00
2019-04-10T19:23:33.178Z,100970.00
2019-04-10T19:26:05.239Z,100955.00
2019-04-10T19:28:38.526Z,100970.00
2019-04-10T19:31:16.121Z,100982.00
2019-04-10T19:33:41.518Z,100982.00
2019-04-10T19:36:11.959Z,100974.00
2019-04-10T19:38:41.873Z,100981.00
2019-04-10T19:41:22.202Z,100976.00
2019-04-10T19:43:43.204Z,100987.00
2019-04-10T19:46:15.388Z,100988.00
2019-04-10T19:48:49.783Z,100984.00
2019-04-10T19:51:18.288Z,100995.00
2019-04-10T19:53:51.221Z,100996.00
2019-04-10T19:56:21.394Z,100999.00
2019-04-10T19:58:51.059Z,100999.00
2019-04-10T20:01:21.122Z,100995.00
2019-04-10T20:03:51.965Z,101012.00
2019-04-10T20:06:23.828Z,101013.00
2019-04-10T20:08:53.778Z,101014.00
2019-04-10T20:11:35.681Z,101009.00
2019-04-10T20:13:57.047Z,101019.00
2019-04-10T20:16:27.575Z,101021.00
2019-04-10T20:18:57.274Z,101027.00
2019-04-10T20:21:27.818Z,101028.00
2019-04-10T20:23:58.560Z,101037.00
2019-04-10T20:26:29.453Z,101024.00
2019-04-10T20:28:59.229Z,101027.00
2019-04-10T20:31:31.180Z,101028.00
2019-04-10T20:34:01.075Z,101027.00
2019-04-10T20:36:31.148Z,101025.00
2019-04-10T20:39:01.114Z,101040.00
2019-04-10T20:41:30.879Z,101039.00
2019-04-10T20:44:01.491Z,101038.00
2019-04-10T20:46:31.357Z,101045.00
2019-04-10T20:49:01.036Z,101040.00
2019-04-10T20:51:30.708Z,101047.00
2019-04-10T20:54:01.307Z,101036.00
2019-04-10T20:56:31.071Z,101049.00
2019-04-10T20:59:01.515Z,101056.00
2019-04-10T21:01:31.651Z,101061.00
2019-04-10T21:04:01.342Z,101057.00
2019-04-10T21:06:31.814Z,101059.00
2019-04-10T21:09:01.662Z,101055.00
2019-04-10T21:11:31.415Z,101070.00
2019-04-10T21:14:05.240Z,101057.00
2019-04-10T21:16:35.749Z,101064.00
2019-04-10T21:19:06.719Z,101063.00
2019-04-10T21:21:37.096Z,101058.00
2019-04-10T21:24:06.890Z,101069.00
2019-04-10T21:26:38.814Z,101060.00
2019-04-10T21:29:13.643Z,101070.00
2019-04-10T21:31:44.966Z,101066.00
2019-04-10T21:34:17.526Z,101071.00
2019-04-10T21:36:48.997Z,101085.00
2019-04-10T21:39:22.572Z,101077.00
2019-04-10T21:41:53.584Z,101083.00
2019-04-10T21:44:23.276Z,101093.00
2019-04-10T21:46:53.067Z,101079.00
2019-04-10T21:49:23.956Z,101087.00
2019-04-10T21:51:53.796Z,101094.00
2019-04-10T21:54:24.510Z,101094.00
2019-04-10T21:56:55.510Z,101089.00
2019-04-10T21:59:25.439Z,101088.00
2019-04-10T22:01:55.180Z,101084.00
2019-04-10T22:04:25.224Z,101086.00
2019-04-10T22:07:01.457Z,101092.00
2019-04-10T22:09:32.911Z,101100.00
2019-04-10T22:12:04.220Z,101095.00
2019-04-10T22:14:36.612Z,101101.00
2019-04-10T22:17:08.740Z,101091.00
2019-04-10T22:19:39.549Z,101094.00
2019-04-10T22:22:11.242Z,101108.00
2019-04-10T22:24:40.698Z,101108.00
2019-04-10T22:27:11.361Z,101106.00
2019-04-10T22:29:41.230Z,101110.00
2019-04-10T22:32:10.978Z,101115.00
2019-04-10T22:34:40.634Z,101113.00
2019-04-10T22:37:10.360Z,101121.00
2019-04-10T22:39:40.116Z,101116.00
2019-04-10T22:42:10.837Z,101116.00
2019-04-10T22:44:44.926Z,101132.00
2019-04-10T22:47:12.126Z,101123.00
2019-04-10T22:49:42.756Z,101125.00
2019-04-10T22:52:12.964Z,101124.00
2019-04-10T22:54:42.652Z,101141.00
2019-04-10T22:57:12.536Z,101129.00
2019-04-10T22:59:42.530Z,101139.00
2019-04-10T23:02:14.671Z,101146.00
2019-04-10T23:04:44.748Z,101143.00
2019-04-10T23:07:14.592Z,101139.00
2019-04-10T23:09:44.472Z,101148.00
2019-04-10T23:12:14.564Z,101148.00
2019-04-10T23:14:44.955Z,101149.00
2019-04-10T23:17:14.959Z,101148.00
2019-04-10T23:19:44.644Z,101149.00
2019-04-10T23:22:14.325Z,101152.00
2019-04-10T23:24:44.020Z,101159.00
2019-04-10T23:27:13.641Z,101150.00
2019-04-10T23:29:44.781Z,101149.00
2019-04-10T23:32:15.196Z,101153.00
2019-04-10T23:34:45.163Z,101151.00
2019-04-10T23:37:15.042Z,101154.00
2019-04-10T23:39:46.081Z,101150.00
2019-04-10T23:42:15.923Z,101160.00
2019-04-10T23:44:46.997Z,101155.00
2019-04-10T23:47:17.837Z,101152.00
2019-04-10T23:49:47.985Z,101152.00
2019-04-10T23:52:17.949Z,101152.00
2019-04-10T23:54:49.170Z,101149.00
2019-04-10T23:57:18.999Z,101143.00
2019-04-10T23:59:48.870Z,101132.00
